sensor_id;sensor_type;location;lat;lon;timestamp;P1;durP1;ratioP1;P2;durP2;ratioP2
29908;SDS011;36247;51.952;6.146;2023-10-13T00:00:43;33.83;;;25.48;;
29908;SDS011;36247;51.952;6.146;2023-10-13T00:03:09;44.50;;;26.55;;
29908;SDS011;36247;51.952;6.146;2023-10-13T00:05:41;35.75;;;25.35;;
29908;SDS011;36247;51.952;6.146;2023-10-13T00:08:08;33.90;;;24.27;;
29908;SDS011;36247;51.952;6.146;2023-10-13T00:10:35;32.25;;;25.05;;
29908;SDS011;36247;51.952;6.146;2023-10-13T00:13:01;37.70;;;25.30;;
29908;SDS011;36247;51.952;6.146;2023-10-13T00:15:41;32.10;;;23.65;;
29908;SDS011;36247;51.952;6.146;2023-10-13T00:18:26;38.60;;;22.45;;
29908;SDS011;36247;51.952;6.146;2023-10-13T00:20:58;36.25;;;25.08;;
29908;SDS011;36247;51.952;6.146;2023-10-13T00:23:43;34.08;;;22.08;;
29908;SDS011;36247;51.952;6.146;2023-10-13T00:26:21;32.97;;;21.98;;
29908;SDS011;36247;51.952;6.146;2023-10-13T00:28:55;28.75;;;22.80;;
29908;SDS011;36247;51.952;6.146;2023-10-13T00:31:35;43.38;;;23.42;;
29908;SDS011;36247;51.952;6.146;2023-10-13T00:34:04;40.95;;;25.20;;
29908;SDS011;36247;51.952;6.146;2023-10-13T00:36:54;32.30;;;23.05;;
29908;SDS011;36247;51.952;6.146;2023-10-13T00:39:55;35.10;;;22.73;;
29908;SDS011;36247;51.952;6.146;2023-10-13T00:42:22;32.15;;;22.77;;
29908;SDS011;36247;51.952;6.146;2023-10-13T00:45:13;34.47;;;21.98;;
29908;SDS011;36247;51.952;6.146;2023-10-13T00:47:42;38.10;;;22.17;;
29908;SDS011;36247;51.952;6.146;2023-10-13T00:50:22;33.85;;;20.88;;
29908;SDS011;36247;51.952;6.146;2023-10-13T00:52:49;33.15;;;21.90;;
29908;SDS011;36247;51.952;6.146;2023-10-13T00:55:20;35.58;;;20.00;;
29908;SDS011;36247;51.952;6.146;2023-10-13T00:57:52;34.13;;;20.70;;
29908;SDS011;36247;51.952;6.146;2023-10-13T01:00:22;33.92;;;22.17;;
29908;SDS011;36247;51.952;6.146;2023-10-13T01:02:54;31.52;;;21.75;;
29908;SDS011;36247;51.952;6.146;2023-10-13T01:05:21;37.47;;;22.15;;
29908;SDS011;36247;51.952;6.146;2023-10-13T01:07:50;36.40;;;23.65;;
29908;SDS011;36247;51.952;6.146;2023-10-13T01:10:23;38.10;;;23.73;;
29908;SDS011;36247;51.952;6.146;2023-10-13T01:12:51;39.92;;;25.13;;
29908;SDS011;36247;51.952;6.146;2023-10-13T01:15:19;37.08;;;23.65;;
29908;SDS011;36247;51.952;6.146;2023-10-13T01:17:47;37.10;;;24.27;;
29908;SDS011;36247;51.952;6.146;2023-10-13T01:20:14;41.72;;;25.60;;
29908;SDS011;36247;51.952;6.146;2023-10-13T01:22:50;42.33;;;26.15;;
29908;SDS011;36247;51.952;6.146;2023-10-13T01:25:24;42.47;;;24.48;;
29908;SDS011;36247;51.952;6.146;2023-10-13T01:27:52;34.20;;;25.33;;
29908;SDS011;36247;51.952;6.146;2023-10-13T01:30:17;37.50;;;23.58;;
29908;SDS011;36247;51.952;6.146;2023-10-13T01:32:49;37.95;;;22.55;;
29908;SDS011;36247;51.952;6.146;2023-10-13T01:35:17;34.55;;;21.98;;
29908;SDS011;36247;51.952;6.146;2023-10-13T01:37:51;36.60;;;22.27;;
29908;SDS011;36247;51.952;6.146;2023-10-13T01:40:17;34.75;;;22.90;;
29908;SDS011;36247;51.952;6.146;2023-10-13T01:42:46;33.30;;;22.80;;
29908;SDS011;36247;51.952;6.146;2023-10-13T01:45:12;31.92;;;22.92;;
29908;SDS011;36247;51.952;6.146;2023-10-13T01:47:39;29.52;;;20.95;;
29908;SDS011;36247;51.952;6.146;2023-10-13T01:50:06;38.60;;;22.67;;
29908;SDS011;36247;51.952;6.146;2023-10-13T01:52:40;37.55;;;22.98;;
29908;SDS011;36247;51.952;6.146;2023-10-13T01:55:07;33.67;;;22.45;;
29908;SDS011;36247;51.952;6.146;2023-10-13T01:57:35;38.92;;;22.80;;
29908;SDS011;36247;51.952;6.146;2023-10-13T02:00:01;30.42;;;22.00;;
29908;SDS011;36247;51.952;6.146;2023-10-13T02:02:37;30.52;;;22.17;;
29908;SDS011;36247;51.952;6.146;2023-10-13T02:05:10;28.58;;;20.42;;
29908;SDS011;36247;51.952;6.146;2023-10-13T02:07:35;34.58;;;19.95;;
29908;SDS011;36247;51.952;6.146;2023-10-13T02:10:04;30.60;;;19.15;;
29908;SDS011;36247;51.952;6.146;2023-10-13T02:12:31;33.42;;;17.60;;
29908;SDS011;36247;51.952;6.146;2023-10-13T02:15:13;25.77;;;15.98;;
29908;SDS011;36247;51.952;6.146;2023-10-13T02:17:52;22.92;;;15.20;;
29908;SDS011;36247;51.952;6.146;2023-10-13T02:20:20;21.38;;;15.35;;
29908;SDS011;36247;51.952;6.146;2023-10-13T02:22:48;26.92;;;16.33;;
29908;SDS011;36247;51.952;6.146;2023-10-13T02:25:15;21.98;;;14.68;;
29908;SDS011;36247;51.952;6.146;2023-10-13T02:27:44;22.02;;;14.93;;
29908;SDS011;36247;51.952;6.146;2023-10-13T02:30:24;21.10;;;14.40;;
29908;SDS011;36247;51.952;6.146;2023-10-13T02:32:50;25.52;;;16.20;;
29908;SDS011;36247;51.952;6.146;2023-10-13T02:35:18;24.83;;;16.42;;
29908;SDS011;36247;51.952;6.146;2023-10-13T02:37:45;23.45;;;15.77;;
29908;SDS011;36247;51.952;6.146;2023-10-13T02:40:19;25.67;;;16.50;;
29908;SDS011;36247;51.952;6.146;2023-10-13T02:42:48;23.88;;;15.82;;
29908;SDS011;36247;51.952;6.146;2023-10-13T02:45:14;26.55;;;17.27;;
29908;SDS011;36247;51.952;6.146;2023-10-13T02:47:42;26.17;;;16.65;;
29908;SDS011;36247;51.952;6.146;2023-10-13T02:50:09;21.58;;;15.05;;
29908;SDS011;36247;51.952;6.146;2023-10-13T02:52:38;25.83;;;15.98;;
29908;SDS011;36247;51.952;6.146;2023-10-13T02:55:07;25.83;;;15.07;;
29908;SDS011;36247;51.952;6.146;2023-10-13T02:57:41;21.92;;;15.43;;
29908;SDS011;36247;51.952;6.146;2023-10-13T03:00:07;23.13;;;16.38;;
29908;SDS011;36247;51.952;6.146;2023-10-13T03:02:42;26.67;;;15.23;;
29908;SDS011;36247;51.952;6.146;2023-10-13T03:05:23;25.33;;;15.75;;
29908;SDS011;36247;51.952;6.146;2023-10-13T03:07:51;26.13;;;15.35;;
29908;SDS011;36247;51.952;6.146;2023-10-13T03:10:17;24.67;;;15.63;;
29908;SDS011;36247;51.952;6.146;2023-10-13T03:12:44;22.48;;;14.60;;
29908;SDS011;36247;51.952;6.146;2023-10-13T03:15:13;20.50;;;14.02;;
29908;SDS011;36247;51.952;6.146;2023-10-13T03:17:40;22.27;;;13.93;;
29908;SDS011;36247;51.952;6.146;2023-10-13T03:20:12;33.35;;;14.98;;
29908;SDS011;36247;51.952;6.146;2023-10-13T03:22:40;26.67;;;16.55;;
29908;SDS011;36247;51.952;6.146;2023-10-13T03:25:10;26.80;;;17.10;;
29908;SDS011;36247;51.952;6.146;2023-10-13T03:27:43;25.90;;;18.00;;
29908;SDS011;36247;51.952;6.146;2023-10-13T03:30:20;25.08;;;15.30;;
29908;SDS011;36247;51.952;6.146;2023-10-13T03:32:47;20.98;;;14.55;;
29908;SDS011;36247;51.952;6.146;2023-10-13T03:35:20;22.43;;;13.60;;
29908;SDS011;36247;51.952;6.146;2023-10-13T03:37:52;25.88;;;14.65;;
29908;SDS011;36247;51.952;6.146;2023-10-13T03:40:19;22.38;;;14.05;;
29908;SDS011;36247;51.952;6.146;2023-10-13T03:42:48;22.63;;;13.75;;
29908;SDS011;36247;51.952;6.146;2023-10-13T03:45:33;29.55;;;15.90;;
29908;SDS011;36247;51.952;6.146;2023-10-13T03:48:16;28.13;;;15.47;;
29908;SDS011;36247;51.952;6.146;2023-10-13T03:50:53;28.95;;;16.55;;
29908;SDS011;36247;51.952;6.146;2023-10-13T03:53:39;23.35;;;16.35;;
29908;SDS011;36247;51.952;6.146;2023-10-13T03:56:20;25.67;;;17.80;;
29908;SDS011;36247;51.952;6.146;2023-10-13T03:59:03;31.55;;;18.55;;
29908;SDS011;36247;51.952;6.146;2023-10-13T04:01:32;31.58;;;19.23;;
29908;SDS011;36247;51.952;6.146;2023-10-13T04:04:17;26.75;;;18.35;;
29908;SDS011;36247;51.952;6.146;2023-10-13T04:07:07;28.42;;;17.95;;
29908;SDS011;36247;51.952;6.146;2023-10-13T04:09:33;26.27;;;17.30;;
29908;SDS011;36247;51.952;6.146;2023-10-13T04:12:01;32.30;;;18.20;;
29908;SDS011;36247;51.952;6.146;2023-10-13T04:14:31;28.38;;;18.10;;
29908;SDS011;36247;51.952;6.146;2023-10-13T04:17:17;26.80;;;16.33;;
29908;SDS011;36247;51.952;6.146;2023-10-13T04:19:52;24.40;;;16.60;;
29908;SDS011;36247;51.952;6.146;2023-10-13T04:22:35;22.48;;;13.98;;
29908;SDS011;36247;51.952;6.146;2023-10-13T04:25:24;27.02;;;13.75;;
29908;SDS011;36247;51.952;6.146;2023-10-13T04:28:09;18.40;;;13.18;;
29908;SDS011;36247;51.952;6.146;2023-10-13T04:30:47;21.45;;;12.32;;
29908;SDS011;36247;51.952;6.146;2023-10-13T04:33:23;23.23;;;13.37;;
29908;SDS011;36247;51.952;6.146;2023-10-13T04:36:02;26.00;;;13.38;;
29908;SDS011;36247;51.952;6.146;2023-10-13T04:38:48;20.10;;;12.57;;
29908;SDS011;36247;51.952;6.146;2023-10-13T04:41:34;25.00;;;13.88;;
29908;SDS011;36247;51.952;6.146;2023-10-13T04:44:11;22.25;;;13.85;;
29908;SDS011;36247;51.952;6.146;2023-10-13T04:47:02;22.92;;;13.82;;
29908;SDS011;36247;51.952;6.146;2023-10-13T04:49:28;31.70;;;16.60;;
29908;SDS011;36247;51.952;6.146;2023-10-13T04:52:08;29.08;;;15.35;;
29908;SDS011;36247;51.952;6.146;2023-10-13T04:54:35;30.67;;;16.52;;
29908;SDS011;36247;51.952;6.146;2023-10-13T04:59:49;30.95;;;17.58;;
29908;SDS011;36247;51.952;6.146;2023-10-13T05:02:35;32.83;;;17.70;;
29908;SDS011;36247;51.952;6.146;2023-10-13T05:05:02;35.20;;;18.02;;
29908;SDS011;36247;51.952;6.146;2023-10-13T05:07:43;36.75;;;20.65;;
29908;SDS011;36247;51.952;6.146;2023-10-13T05:10:28;31.17;;;20.05;;
29908;SDS011;36247;51.952;6.146;2023-10-13T05:13:13;31.85;;;20.98;;
29908;SDS011;36247;51.952;6.146;2023-10-13T05:16:01;38.25;;;21.73;;
29908;SDS011;36247;51.952;6.146;2023-10-13T05:18:45;33.97;;;22.08;;
29908;SDS011;36247;51.952;6.146;2023-10-13T05:21:29;33.88;;;22.15;;
29908;SDS011;36247;51.952;6.146;2023-10-13T05:24:17;31.08;;;22.60;;
29908;SDS011;36247;51.952;6.146;2023-10-13T05:27:01;31.80;;;20.33;;
29908;SDS011;36247;51.952;6.146;2023-10-13T05:29:47;36.25;;;21.83;;
29908;SDS011;36247;51.952;6.146;2023-10-13T05:32:33;33.65;;;22.73;;
29908;SDS011;36247;51.952;6.146;2023-10-13T05:35:19;26.38;;;16.33;;
29908;SDS011;36247;51.952;6.146;2023-10-13T05:38:04;28.70;;;19.83;;
29908;SDS011;36247;51.952;6.146;2023-10-13T05:41:01;30.05;;;18.65;;
29908;SDS011;36247;51.952;6.146;2023-10-13T05:43:46;27.23;;;16.98;;
29908;SDS011;36247;51.952;6.146;2023-10-13T05:46:31;25.98;;;17.60;;
29908;SDS011;36247;51.952;6.146;2023-10-13T05:49:03;23.08;;;18.05;;
29908;SDS011;36247;51.952;6.146;2023-10-13T05:51:42;25.50;;;18.20;;
29908;SDS011;36247;51.952;6.146;2023-10-13T05:54:08;23.23;;;15.32;;
29908;SDS011;36247;51.952;6.146;2023-10-13T05:59:28;20.20;;;13.20;;
29908;SDS011;36247;51.952;6.146;2023-10-13T06:02:15;19.85;;;14.02;;
29908;SDS011;36247;51.952;6.146;2023-10-13T06:05:03;20.00;;;13.65;;
29908;SDS011;36247;51.952;6.146;2023-10-13T06:07:49;20.58;;;13.70;;
29908;SDS011;36247;51.952;6.146;2023-10-13T06:10:34;18.63;;;12.57;;
29908;SDS011;36247;51.952;6.146;2023-10-13T06:13:18;20.27;;;11.82;;
29908;SDS011;36247;51.952;6.146;2023-10-13T06:16:06;19.35;;;12.10;;
29908;SDS011;36247;51.952;6.146;2023-10-13T06:18:51;17.38;;;12.43;;
29908;SDS011;36247;51.952;6.146;2023-10-13T06:21:36;15.60;;;11.18;;
29908;SDS011;36247;51.952;6.146;2023-10-13T06:24:20;14.40;;;10.90;;
29908;SDS011;36247;51.952;6.146;2023-10-13T06:27:04;16.98;;;11.65;;
29908;SDS011;36247;51.952;6.146;2023-10-13T06:29:49;16.25;;;11.10;;
29908;SDS011;36247;51.952;6.146;2023-10-13T06:32:15;17.48;;;11.38;;
29908;SDS011;36247;51.952;6.146;2023-10-13T06:34:42;14.95;;;10.48;;
29908;SDS011;36247;51.952;6.146;2023-10-13T06:37:16;15.20;;;9.90;;
29908;SDS011;36247;51.952;6.146;2023-10-13T06:39:49;18.08;;;10.60;;
29908;SDS011;36247;51.952;6.146;2023-10-13T06:42:15;15.65;;;10.82;;
29908;SDS011;36247;51.952;6.146;2023-10-13T06:44:42;17.20;;;11.68;;
29908;SDS011;36247;51.952;6.146;2023-10-13T06:47:12;19.60;;;11.73;;
29908;SDS011;36247;51.952;6.146;2023-10-13T06:49:39;14.60;;;10.75;;
29908;SDS011;36247;51.952;6.146;2023-10-13T06:52:08;20.85;;;11.80;;
29908;SDS011;36247;51.952;6.146;2023-10-13T06:54:35;18.88;;;11.13;;
29908;SDS011;36247;51.952;6.146;2023-10-13T06:57:04;15.63;;;11.43;;
29908;SDS011;36247;51.952;6.146;2023-10-13T06:59:33;16.10;;;10.80;;
29908;SDS011;36247;51.952;6.146;2023-10-13T07:02:05;11.02;;;8.27;;
29908;SDS011;36247;51.952;6.146;2023-10-13T07:04:33;16.20;;;8.25;;
29908;SDS011;36247;51.952;6.146;2023-10-13T07:07:05;14.95;;;8.82;;
29908;SDS011;36247;51.952;6.146;2023-10-13T07:09:36;13.43;;;8.70;;
29908;SDS011;36247;51.952;6.146;2023-10-13T07:12:02;13.38;;;9.82;;
29908;SDS011;36247;51.952;6.146;2023-10-13T07:14:34;15.02;;;9.70;;
29908;SDS011;36247;51.952;6.146;2023-10-13T07:17:04;14.75;;;9.07;;
29908;SDS011;36247;51.952;6.146;2023-10-13T07:19:33;18.92;;;9.63;;
29908;SDS011;36247;51.952;6.146;2023-10-13T07:22:19;16.05;;;9.02;;
29908;SDS011;36247;51.952;6.146;2023-10-13T07:24:48;12.82;;;9.23;;
29908;SDS011;36247;51.952;6.146;2023-10-13T07:27:18;18.45;;;10.15;;
29908;SDS011;36247;51.952;6.146;2023-10-13T07:32:43;18.80;;;9.70;;
29908;SDS011;36247;51.952;6.146;2023-10-13T07:35:17;20.67;;;9.90;;
29908;SDS011;36247;51.952;6.146;2023-10-13T07:37:45;20.95;;;9.85;;
29908;SDS011;36247;51.952;6.146;2023-10-13T07:40:17;15.70;;;9.40;;
29908;SDS011;36247;51.952;6.146;2023-10-13T07:42:52;13.63;;;9.48;;
29908;SDS011;36247;51.952;6.146;2023-10-13T07:45:31;19.95;;;9.52;;
29908;SDS011;36247;51.952;6.146;2023-10-13T07:48:04;17.75;;;9.10;;
29908;SDS011;36247;51.952;6.146;2023-10-13T07:50:59;14.05;;;9.02;;
29908;SDS011;36247;51.952;6.146;2023-10-13T07:53:29;18.60;;;8.95;;
29908;SDS011;36247;51.952;6.146;2023-10-13T07:56:04;14.93;;;8.48;;
29908;SDS011;36247;51.952;6.146;2023-10-13T07:58:31;18.52;;;8.85;;
29908;SDS011;36247;51.952;6.146;2023-10-13T08:00:57;17.85;;;8.98;;
29908;SDS011;36247;51.952;6.146;2023-10-13T08:03:33;19.52;;;9.45;;
29908;SDS011;36247;51.952;6.146;2023-10-13T08:05:59;25.20;;;9.13;;
29908;SDS011;36247;51.952;6.146;2023-10-13T08:08:32;18.13;;;9.50;;
29908;SDS011;36247;51.952;6.146;2023-10-13T08:11:09;17.70;;;9.48;;
29908;SDS011;36247;51.952;6.146;2023-10-13T08:13:50;24.75;;;10.25;;
29908;SDS011;36247;51.952;6.146;2023-10-13T08:16:20;26.25;;;9.60;;
29908;SDS011;36247;51.952;6.146;2023-10-13T08:18:47;26.15;;;9.35;;
29908;SDS011;36247;51.952;6.146;2023-10-13T08:21:15;21.40;;;9.40;;
29908;SDS011;36247;51.952;6.146;2023-10-13T08:23:51;24.02;;;9.60;;
29908;SDS011;36247;51.952;6.146;2023-10-13T08:26:20;29.00;;;10.05;;
29908;SDS011;36247;51.952;6.146;2023-10-13T08:29:04;19.88;;;9.02;;
29908;SDS011;36247;51.952;6.146;2023-10-13T08:31:48;20.30;;;8.73;;
29908;SDS011;36247;51.952;6.146;2023-10-13T08:34:38;14.20;;;9.13;;
29908;SDS011;36247;51.952;6.146;2023-10-13T08:37:10;20.00;;;8.65;;
29908;SDS011;36247;51.952;6.146;2023-10-13T08:39:58;19.33;;;9.15;;
29908;SDS011;36247;51.952;6.146;2023-10-13T08:42:30;23.33;;;8.43;;
29908;SDS011;36247;51.952;6.146;2023-10-13T08:45:15;21.85;;;9.52;;
29908;SDS011;36247;51.952;6.146;2023-10-13T08:47:51;24.35;;;9.15;;
29908;SDS011;36247;51.952;6.146;2023-10-13T08:50:49;17.92;;;7.95;;
29908;SDS011;36247;51.952;6.146;2023-10-13T08:53:19;18.55;;;9.40;;
29908;SDS011;36247;51.952;6.146;2023-10-13T08:55:58;23.73;;;9.38;;
29908;SDS011;36247;51.952;6.146;2023-10-13T08:58:31;24.73;;;9.82;;
29908;SDS011;36247;51.952;6.146;2023-10-13T09:01:16;19.00;;;9.50;;
29908;SDS011;36247;51.952;6.146;2023-10-13T09:04:02;22.45;;;9.60;;
29908;SDS011;36247;51.952;6.146;2023-10-13T09:09:32;16.37;;;7.97;;
29908;SDS011;36247;51.952;6.146;2023-10-13T09:15:10;21.80;;;8.63;;
29908;SDS011;36247;51.952;6.146;2023-10-13T09:17:43;24.35;;;9.10;;
29908;SDS011;36247;51.952;6.146;2023-10-13T09:20:31;20.13;;;9.00;;
29908;SDS011;36247;51.952;6.146;2023-10-13T09:23:13;18.98;;;8.05;;
29908;SDS011;36247;51.952;6.146;2023-10-13T09:26:05;21.92;;;8.50;;
29908;SDS011;36247;51.952;6.146;2023-10-13T09:28:42;27.40;;;9.63;;
29908;SDS011;36247;51.952;6.146;2023-10-13T09:31:09;29.10;;;9.80;;
29908;SDS011;36247;51.952;6.146;2023-10-13T09:33:35;18.95;;;9.02;;
29908;SDS011;36247;51.952;6.146;2023-10-13T09:36:05;20.77;;;8.35;;
29908;SDS011;36247;51.952;6.146;2023-10-13T09:38:32;21.50;;;9.20;;
29908;SDS011;36247;51.952;6.146;2023-10-13T09:41:03;20.98;;;8.40;;
29908;SDS011;36247;51.952;6.146;2023-10-13T09:43:51;19.48;;;8.32;;
29908;SDS011;36247;51.952;6.146;2023-10-13T09:46:19;24.85;;;8.68;;
29908;SDS011;36247;51.952;6.146;2023-10-13T09:48:49;21.33;;;9.15;;
29908;SDS011;36247;51.952;6.146;2023-10-13T09:51:29;25.08;;;8.93;;
29908;SDS011;36247;51.952;6.146;2023-10-13T09:56:42;21.33;;;8.15;;
29908;SDS011;36247;51.952;6.146;2023-10-13T09:59:21;21.58;;;8.45;;
29908;SDS011;36247;51.952;6.146;2023-10-13T10:01:50;19.45;;;8.48;;
29908;SDS011;36247;51.952;6.146;2023-10-13T10:04:34;14.68;;;8.70;;
29908;SDS011;36247;51.952;6.146;2023-10-13T10:07:10;21.02;;;8.38;;
29908;SDS011;36247;51.952;6.146;2023-10-13T10:09:36;21.20;;;7.95;;
29908;SDS011;36247;51.952;6.146;2023-10-13T10:17:38;20.02;;;7.97;;
29908;SDS011;36247;51.952;6.146;2023-10-13T10:20:09;24.92;;;7.30;;
29908;SDS011;36247;51.952;6.146;2023-10-13T10:22:58;21.00;;;7.63;;
29908;SDS011;36247;51.952;6.146;2023-10-13T10:25:28;21.40;;;8.00;;
29908;SDS011;36247;51.952;6.146;2023-10-13T10:28:07;24.67;;;9.63;;
29908;SDS011;36247;51.952;6.146;2023-10-13T10:30:33;16.42;;;7.95;;
29908;SDS011;36247;51.952;6.146;2023-10-13T10:33:01;18.10;;;7.68;;
29908;SDS011;36247;51.952;6.146;2023-10-13T10:35:40;20.35;;;8.32;;
29908;SDS011;36247;51.952;6.146;2023-10-13T10:38:25;17.52;;;8.23;;
29908;SDS011;36247;51.952;6.146;2023-10-13T10:41:02;22.20;;;8.15;;
29908;SDS011;36247;51.952;6.146;2023-10-13T10:43:35;20.92;;;7.25;;
29908;SDS011;36247;51.952;6.146;2023-10-13T10:48:39;23.85;;;9.90;;
29908;SDS011;36247;51.952;6.146;2023-10-13T10:51:08;24.17;;;8.70;;
29908;SDS011;36247;51.952;6.146;2023-10-13T10:53:47;19.17;;;7.82;;
29908;SDS011;36247;51.952;6.146;2023-10-13T10:56:17;19.48;;;8.30;;
29908;SDS011;36247;51.952;6.146;2023-10-13T10:59:10;19.88;;;8.27;;
29908;SDS011;36247;51.952;6.146;2023-10-13T11:01:47;14.00;;;8.07;;
29908;SDS011;36247;51.952;6.146;2023-10-13T11:04:13;19.13;;;8.57;;
29908;SDS011;36247;51.952;6.146;2023-10-13T11:07:01;23.08;;;8.68;;
29908;SDS011;36247;51.952;6.146;2023-10-13T11:09:32;20.80;;;8.55;;
29908;SDS011;36247;51.952;6.146;2023-10-13T11:14:40;23.65;;;9.85;;
29908;SDS011;36247;51.952;6.146;2023-10-13T11:17:18;24.92;;;9.93;;
29908;SDS011;36247;51.952;6.146;2023-10-13T11:20:17;23.75;;;8.50;;
29908;SDS011;36247;51.952;6.146;2023-10-13T11:23:10;21.33;;;9.20;;
29908;SDS011;36247;51.952;6.146;2023-10-13T11:25:39;22.45;;;8.88;;
29908;SDS011;36247;51.952;6.146;2023-10-13T11:28:12;21.42;;;9.25;;
29908;SDS011;36247;51.952;6.146;2023-10-13T11:30:43;20.08;;;9.48;;
29908;SDS011;36247;51.952;6.146;2023-10-13T11:33:16;21.15;;;8.20;;
29908;SDS011;36247;51.952;6.146;2023-10-13T11:35:44;21.48;;;8.38;;
29908;SDS011;36247;51.952;6.146;2023-10-13T11:38:19;18.70;;;8.57;;
29908;SDS011;36247;51.952;6.146;2023-10-13T11:41:04;21.23;;;8.95;;
29908;SDS011;36247;51.952;6.146;2023-10-13T11:43:48;22.40;;;8.80;;
29908;SDS011;36247;51.952;6.146;2023-10-13T11:46:16;21.77;;;9.15;;
29908;SDS011;36247;51.952;6.146;2023-10-13T11:49:06;18.73;;;8.80;;
29908;SDS011;36247;51.952;6.146;2023-10-13T11:51:43;22.05;;;9.40;;
29908;SDS011;36247;51.952;6.146;2023-10-13T11:56:46;23.92;;;9.30;;
29908;SDS011;36247;51.952;6.146;2023-10-13T11:59:12;20.13;;;8.57;;
29908;SDS011;36247;51.952;6.146;2023-10-13T12:01:44;20.27;;;8.10;;
29908;SDS011;36247;51.952;6.146;2023-10-13T12:04:32;20.98;;;8.25;;
29908;SDS011;36247;51.952;6.146;2023-10-13T12:07:23;23.65;;;8.15;;
29908;SDS011;36247;51.952;6.146;2023-10-13T12:09:52;22.20;;;9.00;;
29908;SDS011;36247;51.952;6.146;2023-10-13T12:12:24;23.08;;;8.18;;
29908;SDS011;36247;51.952;6.146;2023-10-13T12:14:51;30.27;;;9.90;;
29908;SDS011;36247;51.952;6.146;2023-10-13T12:17:21;18.52;;;8.27;;
29908;SDS011;36247;51.952;6.146;2023-10-13T12:19:54;21.73;;;7.93;;
29908;SDS011;36247;51.952;6.146;2023-10-13T12:22:21;22.50;;;8.55;;
29908;SDS011;36247;51.952;6.146;2023-10-13T12:25:08;23.25;;;8.05;;
29908;SDS011;36247;51.952;6.146;2023-10-13T12:27:50;26.13;;;8.32;;
29908;SDS011;36247;51.952;6.146;2023-10-13T12:30:22;22.13;;;8.45;;
29908;SDS011;36247;51.952;6.146;2023-10-13T12:33:00;22.05;;;7.97;;
29908;SDS011;36247;51.952;6.146;2023-10-13T12:35:36;22.23;;;8.25;;
29908;SDS011;36247;51.952;6.146;2023-10-13T12:38:25;23.33;;;9.55;;
29908;SDS011;36247;51.952;6.146;2023-10-13T12:41:09;19.27;;;8.50;;
29908;SDS011;36247;51.952;6.146;2023-10-13T12:43:55;25.38;;;8.18;;
29908;SDS011;36247;51.952;6.146;2023-10-13T12:46:39;28.95;;;8.75;;
29908;SDS011;36247;51.952;6.146;2023-10-13T12:49:24;18.00;;;8.68;;
29908;SDS011;36247;51.952;6.146;2023-10-13T12:52:11;21.40;;;8.40;;
29908;SDS011;36247;51.952;6.146;2023-10-13T12:57:25;26.92;;;8.70;;
29908;SDS011;36247;51.952;6.146;2023-10-13T12:59:52;22.67;;;10.00;;
29908;SDS011;36247;51.952;6.146;2023-10-13T13:02:25;18.27;;;7.95;;
29908;SDS011;36247;51.952;6.146;2023-10-13T13:04:52;21.85;;;8.35;;
29908;SDS011;36247;51.952;6.146;2023-10-13T13:07:44;20.13;;;8.37;;
29908;SDS011;36247;51.952;6.146;2023-10-13T13:10:17;21.95;;;9.15;;
29908;SDS011;36247;51.952;6.146;2023-10-13T13:12:46;21.88;;;8.45;;
29908;SDS011;36247;51.952;6.146;2023-10-13T13:15:12;18.60;;;8.45;;
29908;SDS011;36247;51.952;6.146;2023-10-13T13:17:40;17.65;;;8.82;;
29908;SDS011;36247;51.952;6.146;2023-10-13T13:20:06;18.83;;;8.35;;
29908;SDS011;36247;51.952;6.146;2023-10-13T13:22:52;20.42;;;8.40;;
29908;SDS011;36247;51.952;6.146;2023-10-13T13:25:19;22.15;;;8.60;;
29908;SDS011;36247;51.952;6.146;2023-10-13T13:27:50;17.30;;;7.60;;
29908;SDS011;36247;51.952;6.146;2023-10-13T13:30:16;21.80;;;9.10;;
29908;SDS011;36247;51.952;6.146;2023-10-13T13:32:45;23.88;;;8.90;;
29908;SDS011;36247;51.952;6.146;2023-10-13T13:35:12;18.13;;;7.38;;
29908;SDS011;36247;51.952;6.146;2023-10-13T13:37:39;31.08;;;9.27;;
29908;SDS011;36247;51.952;6.146;2023-10-13T13:40:07;26.08;;;8.05;;
29908;SDS011;36247;51.952;6.146;2023-10-13T13:42:40;23.20;;;7.63;;
29908;SDS011;36247;51.952;6.146;2023-10-13T13:45:15;28.52;;;8.77;;
29908;SDS011;36247;51.952;6.146;2023-10-13T13:47:52;19.40;;;7.63;;
29908;SDS011;36247;51.952;6.146;2023-10-13T13:50:25;32.42;;;7.57;;
29908;SDS011;36247;51.952;6.146;2023-10-13T13:52:55;16.13;;;7.93;;
29908;SDS011;36247;51.952;6.146;2023-10-13T13:55:25;22.23;;;7.82;;
29908;SDS011;36247;51.952;6.146;2023-10-13T13:57:55;19.48;;;6.82;;
29908;SDS011;36247;51.952;6.146;2023-10-13T14:00:37;22.70;;;8.10;;
29908;SDS011;36247;51.952;6.146;2023-10-13T14:03:13;25.05;;;7.95;;
29908;SDS011;36247;51.952;6.146;2023-10-13T14:05:58;19.35;;;7.47;;
29908;SDS011;36247;51.952;6.146;2023-10-13T14:08:25;29.38;;;8.52;;
29908;SDS011;36247;51.952;6.146;2023-10-13T14:10:53;22.20;;;6.70;;
29908;SDS011;36247;51.952;6.146;2023-10-13T14:13:38;21.55;;;6.30;;
29908;SDS011;36247;51.952;6.146;2023-10-13T14:16:24;26.50;;;7.35;;
29908;SDS011;36247;51.952;6.146;2023-10-13T14:18:50;17.60;;;6.60;;
29908;SDS011;36247;51.952;6.146;2023-10-13T14:21:17;23.58;;;6.85;;
29908;SDS011;36247;51.952;6.146;2023-10-13T14:26:14;19.30;;;6.97;;
29908;SDS011;36247;51.952;6.146;2023-10-13T14:28:45;21.13;;;6.88;;
29908;SDS011;36247;51.952;6.146;2023-10-13T14:31:30;15.27;;;6.43;;
29908;SDS011;36247;51.952;6.146;2023-10-13T14:33:57;15.68;;;6.38;;
29908;SDS011;36247;51.952;6.146;2023-10-13T14:36:23;17.77;;;7.35;;
29908;SDS011;36247;51.952;6.146;2023-10-13T14:38:51;21.48;;;6.97;;
29908;SDS011;36247;51.952;6.146;2023-10-13T14:41:17;19.80;;;5.93;;
29908;SDS011;36247;51.952;6.146;2023-10-13T14:43:43;18.67;;;6.78;;
29908;SDS011;36247;51.952;6.146;2023-10-13T14:46:16;19.08;;;6.40;;
29908;SDS011;36247;51.952;6.146;2023-10-13T14:48:42;16.60;;;7.00;;
29908;SDS011;36247;51.952;6.146;2023-10-13T14:51:11;18.67;;;6.13;;
29908;SDS011;36247;51.952;6.146;2023-10-13T14:53:44;21.80;;;6.38;;
29908;SDS011;36247;51.952;6.146;2023-10-13T14:56:10;20.77;;;6.55;;
29908;SDS011;36247;51.952;6.146;2023-10-13T14:58:37;23.85;;;7.10;;
29908;SDS011;36247;51.952;6.146;2023-10-13T15:01:12;19.45;;;6.63;;
29908;SDS011;36247;51.952;6.146;2023-10-13T15:03:47;17.52;;;6.55;;
29908;SDS011;36247;51.952;6.146;2023-10-13T15:06:21;18.55;;;6.28;;
29908;SDS011;36247;51.952;6.146;2023-10-13T15:08:58;21.65;;;6.82;;
29908;SDS011;36247;51.952;6.146;2023-10-13T15:11:26;16.40;;;6.72;;
29908;SDS011;36247;51.952;6.146;2023-10-13T15:13:55;20.13;;;6.15;;
29908;SDS011;36247;51.952;6.146;2023-10-13T15:16:22;14.07;;;6.15;;
29908;SDS011;36247;51.952;6.146;2023-10-13T15:18:49;16.40;;;5.82;;
29908;SDS011;36247;51.952;6.146;2023-10-13T15:23:48;17.05;;;6.25;;
29908;SDS011;36247;51.952;6.146;2023-10-13T15:26:17;14.10;;;6.47;;
29908;SDS011;36247;51.952;6.146;2023-10-13T15:28:49;13.18;;;6.75;;
29908;SDS011;36247;51.952;6.146;2023-10-13T15:31:19;14.40;;;6.90;;
29908;SDS011;36247;51.952;6.146;2023-10-13T15:33:51;17.98;;;6.45;;
29908;SDS011;36247;51.952;6.146;2023-10-13T15:36:22;19.85;;;6.35;;
29908;SDS011;36247;51.952;6.146;2023-10-13T15:38:55;18.83;;;7.35;;
29908;SDS011;36247;51.952;6.146;2023-10-13T15:41:25;18.92;;;7.30;;
29908;SDS011;36247;51.952;6.146;2023-10-13T15:43:53;17.90;;;6.97;;
29908;SDS011;36247;51.952;6.146;2023-10-13T15:46:20;19.27;;;7.15;;
29908;SDS011;36247;51.952;6.146;2023-10-13T15:48:50;20.40;;;7.25;;